createdAt,value
2018-02-16T00:01:10.473Z,101342.30
2018-02-16T00:03:38.853Z,101349.75
2018-02-16T00:06:07.232Z,101353.41
2018-02-16T00:08:35.612Z,101355.70
2018-02-16T00:11:04.112Z,101355.92
2018-02-16T00:13:32.588Z,101362.56
2018-02-16T00:16:01.839Z,101377.91
2018-02-16T00:18:30.242Z,101377.03
2018-02-16T00:20:59.408Z,101376.73
2018-02-16T00:23:27.808Z,101378.04
2018-02-16T00:25:56.211Z,101380.05
2018-02-16T00:28:24.714Z,101373.80
2018-02-16T00:30:53.117Z,101376.22
2018-02-16T00:33:21.507Z,101376.66
2018-02-16T00:35:49.951Z,101380.31
2018-02-16T00:38:18.349Z,101390.91
2018-02-16T00:40:46.741Z,101393.45
2018-02-16T00:43:15.224Z,101403.66
2018-02-16T00:45:43.683Z,101410.09
2018-02-16T00:48:12.099Z,101419.77
2018-02-16T00:50:40.471Z,101423.45
2018-02-16T00:53:08.894Z,101425.64
2018-02-16T00:55:38.062Z,101430.98
2018-02-16T00:58:06.475Z,101429.91
2018-02-16T01:00:35.753Z,101440.36
2018-02-16T01:03:04.152Z,101447.06
2018-02-16T01:05:33.387Z,101448.02
2018-02-16T01:08:02.074Z,101447.31
2018-02-16T01:10:30.482Z,101445.94
2018-02-16T01:12:59.099Z,101449.54
2018-02-16T01:15:27.519Z,101448.11
2018-02-16T01:17:55.968Z,101458.08
2018-02-16T01:20:25.172Z,101465.25
2018-02-16T01:22:54.469Z,101466.47
2018-02-16T01:25:23.647Z,101469.75
2018-02-16T01:27:52.035Z,101469.41
2018-02-16T01:30:20.738Z,101471.66
2018-02-16T01:32:49.902Z,101472.35
2018-02-16T01:35:18.301Z,101469.52
2018-02-16T01:37:46.704Z,101471.56
2018-02-16T01:40:15.846Z,101472.95
2018-02-16T01:42:44.383Z,101476.22
2018-02-16T01:45:13.560Z,101482.97
2018-02-16T01:47:41.964Z,101477.27
2018-02-16T01:50:11.139Z,101485.75
2018-02-16T01:52:39.570Z,101489.41
2018-02-16T01:55:07.954Z,101483.98
2018-02-16T01:57:36.542Z,101490.13
2018-02-16T02:00:04.918Z,101492.86
2018-02-16T02:02:33.430Z,101498.05
2018-02-16T02:05:01.813Z,101501.97
2018-02-16T02:07:30.201Z,101509.94
2018-02-16T02:09:58.568Z,101508.70
2018-02-16T02:12:27.000Z,101509.14
2018-02-16T02:14:55.433Z,101512.72
2018-02-16T02:17:23.807Z,101513.06
2018-02-16T02:19:52.198Z,101515.58
2018-02-16T02:22:20.573Z,101513.72
2018-02-16T02:24:49.004Z,101524.13
2018-02-16T02:27:17.374Z,101525.92
2018-02-16T02:29:46.530Z,101529.97
2018-02-16T02:32:14.923Z,101529.31
2018-02-16T02:34:43.304Z,101532.97
2018-02-16T02:37:11.691Z,101527.77
2018-02-16T02:39:40.853Z,101526.58
2018-02-16T02:42:09.254Z,101531.38
2018-02-16T02:44:37.760Z,101538.48
2018-02-16T02:47:06.928Z,101540.50
2018-02-16T02:49:35.322Z,101544.11
2018-02-16T02:52:03.896Z,101549.14
2018-02-16T02:54:32.274Z,101551.95
2018-02-16T02:57:00.651Z,101545.73
2018-02-16T02:59:29.060Z,101553.27
2018-02-16T03:01:57.440Z,101554.98
2018-02-16T03:04:26.632Z,101547.84
2018-02-16T03:06:55.015Z,101552.06
2018-02-16T03:09:23.664Z,101561.02
2018-02-16T03:11:52.049Z,101558.80
2018-02-16T03:14:20.422Z,101571.56
2018-02-16T03:16:48.846Z,101576.92
2018-02-16T03:19:17.242Z,101579.73
2018-02-16T03:21:46.395Z,101581.45
2018-02-16T03:24:14.785Z,101582.80
2018-02-16T03:26:43.195Z,101588.80
2018-02-16T03:29:12.396Z,101587.50
2018-02-16T03:31:41.567Z,101592.14
2018-02-16T03:34:10.117Z,101586.31
2018-02-16T03:36:38.505Z,101585.05
2018-02-16T03:39:06.923Z,101581.59
2018-02-16T03:41:35.311Z,101576.62
2018-02-16T03:44:04.479Z,101579.25
2018-02-16T03:46:32.884Z,101588.41
2018-02-16T03:49:02.066Z,101600.09
2018-02-16T03:51:30.486Z,101601.42
2018-02-16T03:53:59.651Z,101606.97
2018-02-16T03:56:28.830Z,101607.20
2018-02-16T03:58:57.335Z,101614.86
2018-02-16T04:01:26.531Z,101608.11
2018-02-16T04:03:54.908Z,101619.70
2018-02-16T04:06:23.302Z,101613.86
2018-02-16T04:08:51.707Z,101632.03
2018-02-16T04:11:20.862Z,101625.02
2018-02-16T04:13:49.262Z,101629.55
2018-02-16T04:16:17.872Z,101633.98
2018-02-16T04:18:47.055Z,101637.19
2018-02-16T04:21:15.465Z,101642.91
2018-02-16T04:23:43.866Z,101635.73
2018-02-16T04:26:12.296Z,101636.81
2018-02-16T04:28:40.730Z,101640.86
2018-02-16T04:31:09.107Z,101650.63
2018-02-16T04:33:37.523Z,101650.77
2018-02-16T04:36:06.692Z,101657.09
2018-02-16T04:38:35.116Z,101655.38
2018-02-16T04:41:04.270Z,101659.11
2018-02-16T04:43:32.651Z,101653.71
2018-02-16T04:46:01.046Z,101657.10
2018-02-16T04:48:30.216Z,101662.73
2018-02-16T04:50:58.652Z,101670.58
2018-02-16T04:53:27.034Z,101669.54
2018-02-16T04:55:55.423Z,101677.94
2018-02-16T04:58:24.073Z,101694.98
2018-02-16T05:00:52.528Z,101694.11
2018-02-16T05:03:20.890Z,101697.49
2018-02-16T05:05:49.324Z,101701.16
2018-02-16T05:08:17.925Z,101702.00
2018-02-16T05:10:47.078Z,101705.13
2018-02-16T05:13:15.478Z,101708.22
2018-02-16T05:15:43.903Z,101713.47
2018-02-16T05:18:13.071Z,101718.41
2018-02-16T05:20:42.223Z,101719.53
2018-02-16T05:23:10.601Z,101718.84
2018-02-16T05:25:39.018Z,101720.41
2018-02-16T05:28:07.646Z,101723.49
2018-02-16T05:30:36.044Z,101726.80
2018-02-16T05:33:04.426Z,101731.86
2018-02-16T05:35:32.846Z,101726.32
2018-02-16T05:38:01.231Z,101730.20
2018-02-16T05:40:29.624Z,101730.39
2018-02-16T05:42:58.809Z,101728.90
2018-02-16T05:45:27.274Z,101736.58
2018-02-16T05:47:55.685Z,101746.52
2018-02-16T05:50:24.999Z,101749.72
2018-02-16T05:52:53.384Z,101747.63
2018-02-16T05:55:21.794Z,101750.48
2018-02-16T05:57:50.275Z,101745.70
2018-02-16T06:00:18.718Z,101751.33
2018-02-16T06:02:48.035Z,101761.04
2018-02-16T06:05:16.436Z,101764.44
2018-02-16T06:07:44.850Z,101758.01
2018-02-16T06:10:13.271Z,101765.84
2018-02-16T06:12:41.770Z,101772.06
2018-02-16T06:15:10.164Z,101779.85
2018-02-16T06:17:38.625Z,101773.61
2018-02-16T06:20:07.154Z,101772.50
2018-02-16T06:22:35.752Z,101770.65
2018-02-16T06:25:04.124Z,101780.11
2018-02-16T06:27:32.763Z,101779.23
2018-02-16T06:30:01.181Z,101791.73
2018-02-16T06:32:29.565Z,101791.60
2018-02-16T06:34:57.948Z,101803.58
2018-02-16T06:37:27.101Z,101799.63
2018-02-16T06:39:55.490Z,101797.78
2018-02-16T06:42:23.967Z,101796.19
2018-02-16T06:44:52.358Z,101800.09
2018-02-16T06:47:20.750Z,101804.70
2018-02-16T06:49:49.162Z,101812.47
2018-02-16T06:52:17.690Z,101813.25
2018-02-16T06:54:46.144Z,101810.88
2018-02-16T06:57:15.322Z,101813.33
2018-02-16T06:59:43.710Z,101811.02
2018-02-16T07:02:12.886Z,101812.30
2018-02-16T07:04:41.481Z,101822.30
2018-02-16T07:07:10.013Z,101830.84
2018-02-16T07:09:38.419Z,101829.42
2018-02-16T07:12:06.872Z,101833.52
2018-02-16T07:14:35.260Z,101831.96
2018-02-16T07:17:03.816Z,101831.36
2018-02-16T07:19:33.006Z,101836.63
2018-02-16T07:22:02.189Z,101836.05
2018-02-16T07:24:30.617Z,101838.99
2018-02-16T07:26:59.016Z,101848.75
2018-02-16T07:29:27.456Z,101852.12
2018-02-16T07:31:56.696Z,101851.88
2018-02-16T07:34:25.099Z,101848.27
2018-02-16T07:36:53.478Z,101858.67
2018-02-16T07:39:21.862Z,101870.92
2018-02-16T07:41:50.277Z,101869.56
2018-02-16T07:44:19.473Z,101874.39
2018-02-16T07:46:48.620Z,101880.63
2018-02-16T07:49:17.029Z,101885.49
2018-02-16T07:51:45.428Z,101886.77
2018-02-16T07:54:14.616Z,101890.84
2018-02-16T07:56:43.000Z,101892.80
2018-02-16T07:59:11.504Z,101893.78
2018-02-16T08:01:39.882Z,101899.62
2018-02-16T08:04:08.380Z,101900.87
2018-02-16T08:06:36.795Z,101903.08
2018-02-16T08:09:05.236Z,101912.61
2018-02-16T08:11:33.704Z,101915.45
2018-02-16T08:14:02.861Z,101920.26
2018-02-16T08:16:31.279Z,101915.66
2018-02-16T08:19:00.435Z,101920.14
2018-02-16T08:21:28.862Z,101926.41
2018-02-16T08:23:57.252Z,101935.27
2018-02-16T08:26:25.779Z,101937.12
2018-02-16T08:28:54.225Z,101932.06
2018-02-16T08:31:22.633Z,101943.25
2018-02-16T08:33:51.031Z,101948.02
2018-02-16T08:36:19.414Z,101946.39
2018-02-16T08:38:47.853Z,101950.71
2018-02-16T08:41:16.511Z,101959.58
2018-02-16T08:43:45.728Z,101956.86
2018-02-16T08:46:14.100Z,101970.80
2018-02-16T08:48:43.273Z,101974.59
2018-02-16T08:51:11.651Z,101970.22
2018-02-16T08:53:40.039Z,101977.17
2018-02-16T08:56:08.438Z,101977.72
2018-02-16T08:58:37.627Z,101976.51
2018-02-16T09:01:06.842Z,101979.92
2018-02-16T09:03:36.947Z,101982.89
2018-02-16T09:06:06.133Z,101983.98
2018-02-16T09:08:34.518Z,101992.06
2018-02-16T09:11:02.913Z,101994.23
2018-02-16T09:13:32.151Z,101994.00
2018-02-16T09:16:00.556Z,101998.09
2018-02-16T09:18:28.955Z,102001.30
2018-02-16T09:20:57.368Z,102004.81
2018-02-16T09:23:25.792Z,102001.77
2018-02-16T09:25:54.248Z,102007.44
2018-02-16T09:28:22.633Z,102002.52
2018-02-16T09:30:51.086Z,102001.61
2018-02-16T09:33:20.263Z,102010.30
2018-02-16T09:35:50.097Z,102005.75
2018-02-16T09:38:19.417Z,102012.48
2018-02-16T09:40:47.801Z,102015.80
2018-02-16T09:43:16.274Z,102020.80
2018-02-16T09:45:44.664Z,102024.50
2018-02-16T09:48:13.053Z,102028.16
2018-02-16T09:50:41.498Z,102015.20
2018-02-16T09:53:10.650Z,102030.65
2018-02-16T09:55:39.036Z,102028.50
2018-02-16T09:58:07.426Z,102026.36
2018-02-16T10:00:35.965Z,102027.13
2018-02-16T10:03:04.351Z,102029.11
2018-02-16T10:05:32.758Z,102032.08
2018-02-16T10:08:01.184Z,102031.75
2018-02-16T10:10:29.575Z,102024.36
2018-02-16T10:12:58.816Z,102026.03
2018-02-16T10:15:27.358Z,102031.62
2018-02-16T10:17:56.544Z,102032.84
2018-02-16T10:20:24.947Z,102041.38
2018-02-16T10:22:53.339Z,102041.52
2018-02-16T10:25:21.778Z,102043.00
2018-02-16T10:27:50.194Z,102046.65
2018-02-16T10:30:19.415Z,102045.38
2018-02-16T10:32:47.809Z,102047.19
2018-02-16T10:35:16.240Z,102052.69
2018-02-16T10:37:45.398Z,102052.20
2018-02-16T10:40:13.794Z,102050.91
2018-02-16T10:42:42.190Z,102053.04
2018-02-16T10:45:11.363Z,102061.80
2018-02-16T10:47:39.783Z,102057.37
2018-02-16T10:50:08.937Z,102059.45
2018-02-16T10:52:37.352Z,102056.25
2018-02-16T10:55:05.743Z,102061.70
2018-02-16T10:57:35.097Z,102062.74
2018-02-16T11:00:03.805Z,102063.53
2018-02-16T11:02:37.514Z,102063.71
2018-02-16T11:05:11.419Z,102068.16
2018-02-16T11:07:45.292Z,102072.27
2018-02-16T11:10:14.437Z,102061.55
2018-02-16T11:12:42.794Z,102067.64
2018-02-16T11:15:11.175Z,102067.19
2018-02-16T11:17:39.579Z,102063.41
2018-02-16T11:20:07.980Z,102061.53
2018-02-16T11:22:37.129Z,102067.25
2018-02-16T11:25:05.570Z,102068.29
2018-02-16T11:27:34.734Z,102066.13
2018-02-16T11:30:03.130Z,102071.72
2018-02-16T11:32:31.535Z,102071.11
2018-02-16T11:35:00.709Z,102069.05
2018-02-16T11:37:29.145Z,102074.34
2018-02-16T11:39:57.527Z,102072.93
2018-02-16T11:42:25.917Z,102075.69
2018-02-16T11:44:54.463Z,102077.81
2018-02-16T11:47:23.659Z,102077.53
2018-02-16T11:49:52.080Z,102072.75
2018-02-16T11:52:20.483Z,102068.89
2018-02-16T11:54:48.897Z,102074.89
2018-02-16T11:57:17.285Z,102073.66
2018-02-16T11:59:47.059Z,102076.87
2018-02-16T12:02:15.469Z,102071.88
2018-02-16T12:04:44.158Z,102075.20
2018-02-16T12:07:12.617Z,102069.77
2018-02-16T12:09:41.020Z,102075.18
2018-02-16T12:12:09.446Z,102080.98
2018-02-16T12:14:37.819Z,102079.19
2018-02-16T12:17:06.468Z,102077.66
2018-02-16T12:19:34.852Z,102077.67
2018-02-16T12:22:03.250Z,102073.04
2018-02-16T12:24:31.912Z,102076.73
2018-02-16T12:27:01.333Z,102072.89
2018-02-16T12:29:29.896Z,102073.23
2018-02-16T12:31:58.293Z,102072.32
2018-02-16T12:34:27.460Z,102075.30
2018-02-16T12:36:55.881Z,102082.00
2018-02-16T12:39:25.034Z,102083.22
2018-02-16T12:41:53.442Z,102075.72
2018-02-16T12:44:22.064Z,102068.84
2018-02-16T12:46:50.442Z,102072.36
2018-02-16T12:49:19.698Z,102076.20
2018-02-16T12:51:48.092Z,102079.59
2018-02-16T12:54:17.268Z,102074.37
2018-02-16T12:56:45.781Z,102073.81
2018-02-16T12:59:14.427Z,102073.12
2018-02-16T13:01:42.872Z,102073.56
2018-02-16T13:04:11.349Z,102066.05
2018-02-16T13:06:51.680Z,102066.75
2018-02-16T13:09:21.208Z,102054.98
2018-02-16T13:11:49.644Z,102060.23
2018-02-16T13:14:18.045Z,102050.90
2018-02-16T13:16:46.814Z,102060.72
2018-02-16T13:19:15.334Z,102063.86
2018-02-16T13:21:43.920Z,102053.06
2018-02-16T13:24:12.377Z,102051.02
2018-02-16T13:27:08.624Z,102048.45
2018-02-16T13:29:37.335Z,102049.94
2018-02-16T13:32:05.959Z,102052.41
2018-02-16T13:34:34.562Z,102052.23
2018-02-16T13:37:03.056Z,102052.10
2018-02-16T13:39:31.488Z,102041.16
2018-02-16T13:41:59.919Z,102045.66
2018-02-16T13:44:28.401Z,102039.83
2018-02-16T13:46:56.821Z,102044.86
2018-02-16T13:49:25.235Z,102040.29
2018-02-16T13:51:53.782Z,102035.77
2018-02-16T13:54:22.269Z,102046.76
2018-02-16T13:56:50.752Z,102043.59
2018-02-16T13:59:19.125Z,102040.63
2018-02-16T14:01:47.524Z,102047.21
2018-02-16T14:04:15.931Z,102046.23
2018-02-16T14:06:45.113Z,102043.08
2018-02-16T14:09:14.272Z,102040.95
2018-02-16T14:11:42.675Z,102041.23
2018-02-16T14:14:11.087Z,102041.42
2018-02-16T14:16:41.818Z,102046.02
2018-02-16T14:19:11.007Z,102048.09
2018-02-16T14:21:39.454Z,102046.84
2018-02-16T14:24:07.974Z,102034.84
2018-02-16T14:26:36.457Z,102036.34
2018-02-16T14:29:04.893Z,102038.64
2018-02-16T14:31:33.295Z,102037.94
2018-02-16T14:34:01.755Z,102035.61
2018-02-16T14:36:30.153Z,102035.48
2018-02-16T14:38:58.603Z,102030.45
2018-02-16T14:41:28.041Z,102032.25
2018-02-16T14:43:56.451Z,102032.30
2018-02-16T14:46:29.547Z,102029.45
2018-02-16T14:49:10.038Z,102026.81
2018-02-16T14:51:41.569Z,102032.58
2018-02-16T14:54:14.104Z,102036.73
2018-02-16T14:56:42.512Z,102026.77
2018-02-16T14:59:11.540Z,102028.59
2018-02-16T15:01:39.979Z,102029.31
2018-02-16T15:04:08.414Z,102032.55
2018-02-16T15:06:36.890Z,102035.75
2018-02-16T15:09:06.136Z,102031.28
2018-02-16T15:11:34.573Z,102034.48
2018-02-16T15:14:02.997Z,102026.72
2018-02-16T15:16:31.421Z,102032.62
2018-02-16T15:19:00.583Z,102025.88
2018-02-16T15:21:28.990Z,102032.30
2018-02-16T15:23:58.242Z,102023.34
2018-02-16T15:26:27.374Z,102030.08
2018-02-16T15:28:57.477Z,102024.43
2018-02-16T15:31:27.234Z,102020.90
2018-02-16T15:33:56.604Z,102025.33
2018-02-16T15:36:25.015Z,102026.70
2018-02-16T15:38:54.200Z,102028.27
2018-02-16T15:41:22.623Z,102032.41
2018-02-16T15:43:51.025Z,102035.08
2018-02-16T15:46:19.406Z,102036.98
2018-02-16T15:48:48.720Z,102041.54
2018-02-16T15:51:17.152Z,102038.67
2018-02-16T15:53:45.556Z,102045.02
2018-02-16T15:56:13.942Z,102039.92
2018-02-16T15:58:42.388Z,102043.77
2018-02-16T16:01:11.578Z,102048.39
2018-02-16T16:03:40.757Z,102046.81
2018-02-16T16:06:09.147Z,102050.27
2018-02-16T16:08:38.434Z,102045.12
2018-02-16T16:11:06.887Z,102046.46
2018-02-16T16:13:35.358Z,102038.02
2018-02-16T16:16:03.782Z,102038.73
2018-02-16T16:18:32.226Z,102042.06
2018-02-16T16:21:00.688Z,102052.50
2018-02-16T16:23:29.114Z,102044.17
2018-02-16T16:25:57.686Z,102042.47
2018-02-16T16:28:26.064Z,102052.02
2018-02-16T16:30:54.468Z,102055.31
2018-02-16T16:33:22.913Z,102067.04
2018-02-16T16:35:51.338Z,102073.89
2018-02-16T16:38:19.921Z,102077.30
2018-02-16T16:40:48.319Z,102084.73
2018-02-16T16:43:18.048Z,102087.23
2018-02-16T16:45:47.248Z,102087.91
2018-02-16T16:48:17.999Z,102088.88
2018-02-16T16:50:47.187Z,102092.70
2018-02-16T16:53:17.757Z,102098.67
2018-02-16T16:55:46.190Z,102104.31
2018-02-16T16:58:16.005Z,102111.34
2018-02-16T17:00:45.210Z,102115.65
2018-02-16T17:03:16.053Z,102114.30
2018-02-16T17:05:45.226Z,102110.93
2018-02-16T17:08:15.234Z,102108.56
2018-02-16T17:10:43.621Z,102111.34
2018-02-16T17:13:13.518Z,102108.95
2018-02-16T17:15:42.010Z,102111.13
2018-02-16T17:18:11.765Z,102109.58
2018-02-16T17:20:40.966Z,102104.37
2018-02-16T17:23:11.747Z,102107.91
2018-02-16T17:25:40.176Z,102105.25
2018-02-16T17:28:09.669Z,102104.14
2018-02-16T17:30:38.100Z,102104.58
2018-02-16T17:33:07.802Z,102107.25
2018-02-16T17:35:37.027Z,102097.28
2018-02-16T17:38:05.430Z,102098.55
2018-02-16T17:40:33.822Z,102099.00
2018-02-16T17:43:02.258Z,102095.00
2018-02-16T17:45:30.803Z,102096.66
2018-02-16T17:47:59.255Z,102097.28
2018-02-16T17:50:28.447Z,102092.59
2018-02-16T17:52:57.063Z,102090.87
2018-02-16T17:55:25.526Z,102082.47
2018-02-16T17:57:53.911Z,102082.66
2018-02-16T18:00:22.320Z,102084.73
2018-02-16T18:02:50.766Z,102087.60
2018-02-16T18:05:19.365Z,102083.38
2018-02-16T18:07:47.761Z,102077.68
2018-02-16T18:10:16.233Z,102072.45
2018-02-16T18:12:44.672Z,102072.72
2018-02-16T18:15:13.873Z,102068.48
2018-02-16T18:17:42.359Z,102077.75
2018-02-16T18:20:11.696Z,102077.70
2018-02-16T18:22:40.963Z,102085.84
2018-02-16T18:25:09.461Z,102075.33
2018-02-16T18:27:37.844Z,102077.86
2018-02-16T18:30:06.405Z,102073.23
2018-02-16T18:32:35.600Z,102075.20
2018-02-16T18:35:04.777Z,102077.77
2018-02-16T18:37:33.193Z,102087.33
2018-02-16T18:40:01.615Z,102098.30
2018-02-16T18:42:30.027Z,102099.13
2018-02-16T18:44:58.422Z,102099.88
2018-02-16T18:47:26.912Z,102095.03
2018-02-16T18:49:55.313Z,102087.08
2018-02-16T18:52:23.875Z,102084.37
2018-02-16T18:54:52.284Z,102079.80
2018-02-16T18:57:20.719Z,102065.91
2018-02-16T18:59:50.991Z,102070.92
2018-02-16T19:02:19.393Z,102059.83
2018-02-16T19:04:48.278Z,102065.28
2018-02-16T19:07:16.865Z,102071.67
2018-02-16T19:09:45.279Z,102070.30
2018-02-16T19:12:13.907Z,102088.06
2018-02-16T19:14:42.303Z,102088.73
2018-02-16T19:17:10.733Z,102085.98
2018-02-16T19:19:39.267Z,102089.16
2018-02-16T19:22:07.723Z,102095.65
2018-02-16T19:24:36.986Z,102101.33
2018-02-16T19:27:05.411Z,102098.69
2018-02-16T19:29:34.258Z,102079.36
2018-02-16T19:32:03.520Z,102077.89
2018-02-16T19:34:32.229Z,102072.78
2018-02-16T19:37:00.685Z,102072.87
2018-02-16T19:39:30.416Z,102068.36
2018-02-16T19:42:01.872Z,102076.08
2018-02-16T19:44:30.651Z,102080.02
2018-02-16T19:46:59.741Z,102082.21
2018-02-16T19:49:28.248Z,102077.61
2018-02-16T19:51:57.174Z,102075.38
2018-02-16T19:54:26.015Z,102079.41
2018-02-16T19:56:54.715Z,102102.40
2018-02-16T19:59:23.595Z,102114.99
2018-02-16T20:01:52.075Z,102117.75
2018-02-16T20:04:20.689Z,102121.59
2018-02-16T20:06:49.434Z,102106.01
2018-02-16T20:09:18.338Z,102102.14
2018-02-16T20:11:47.337Z,102109.59
2018-02-16T20:14:16.935Z,102101.29
2018-02-16T20:16:45.555Z,102091.38
2018-02-16T20:19:14.053Z,102093.97
2018-02-16T20:21:43.206Z,102086.04
2018-02-16T20:24:12.506Z,102079.66
2018-02-16T20:26:41.294Z,102075.26
2018-02-16T20:29:10.020Z,102071.77
2018-02-16T20:31:39.591Z,102064.64
2018-02-16T20:34:08.555Z,102065.34
2018-02-16T20:36:37.015Z,102074.97
2018-02-16T20:39:05.860Z,102076.29
2018-02-16T20:41:35.515Z,102076.69
2018-02-16T20:44:04.098Z,102078.35
2018-02-16T20:46:33.282Z,102088.50
2018-02-16T20:49:02.901Z,102091.92
2018-02-16T20:51:31.429Z,102088.03
2018-02-16T20:53:59.833Z,102089.56
2018-02-16T20:56:28.284Z,102088.15
2018-02-16T20:58:56.816Z,102099.00
2018-02-16T21:01:25.321Z,102100.27
2018-02-16T21:03:58.363Z,102102.59
2018-02-16T21:06:38.373Z,102098.70
2018-02-16T21:09:10.006Z,102102.70
2018-02-16T21:11:38.557Z,102097.98
2018-02-16T21:14:06.992Z,102102.83
2018-02-16T21:16:35.424Z,102096.90
2018-02-16T21:19:03.847Z,102100.47
2018-02-16T21:21:35.999Z,102100.94
2018-02-16T21:24:06.988Z,102102.14
2018-02-16T21:26:35.537Z,102107.16
2018-02-16T21:29:04.077Z,102114.00
2018-02-16T21:31:32.519Z,102108.70
2018-02-16T21:34:01.031Z,102116.62
2018-02-16T21:36:29.470Z,102106.60
2018-02-16T21:38:58.370Z,102103.95
2018-02-16T21:41:27.717Z,102101.99
2018-02-16T21:43:56.276Z,102101.33
2018-02-16T21:46:26.306Z,102096.37
2018-02-16T21:48:56.380Z,102089.80
2018-02-16T21:51:25.060Z,102080.37
2018-02-16T21:53:53.746Z,102073.53
2018-02-16T21:56:24.845Z,102073.19
2018-02-16T21:58:53.368Z,102073.44
2018-02-16T22:01:23.425Z,102065.90
2018-02-16T22:03:52.579Z,102069.62
2018-02-16T22:06:21.984Z,102056.02
2018-02-16T22:08:50.446Z,102056.83
2018-02-16T22:11:19.000Z,102068.37
2018-02-16T22:13:47.443Z,102065.85
2018-02-16T22:16:16.057Z,102065.46
2018-02-16T22:18:45.373Z,102052.20
2018-02-16T22:21:13.853Z,102052.31
2018-02-16T22:23:43.047Z,102046.27
2018-02-16T22:26:12.216Z,102042.08
2018-02-16T22:28:40.725Z,102033.77
2018-02-16T22:31:09.387Z,102038.41
2018-02-16T22:33:37.987Z,102035.84
2018-02-16T22:36:07.670Z,102034.66
2018-02-16T22:38:36.120Z,102039.59
2018-02-16T22:41:04.503Z,102039.06
2018-02-16T22:43:33.227Z,102041.92
2018-02-16T22:46:02.899Z,102039.69
2018-02-16T22:48:33.122Z,102039.04
2018-02-16T22:51:02.668Z,102038.16
2018-02-16T22:53:31.603Z,102043.66
2018-02-16T22:56:00.814Z,102033.53
2018-02-16T22:58:29.206Z,102036.18
2018-02-16T23:00:57.600Z,102048.51
2018-02-16T23:03:26.483Z,102043.52
2018-02-16T23:05:54.887Z,102040.13
2018-02-16T23:08:23.281Z,102040.22
2018-02-16T23:10:52.447Z,102041.70
2018-02-16T23:13:20.924Z,102044.77
2018-02-16T23:15:49.326Z,102051.59
2018-02-16T23:18:17.962Z,102037.88
2018-02-16T23:20:47.191Z,102037.17
2018-02-16T23:23:16.347Z,102033.02
2018-02-16T23:25:45.558Z,102038.88
2018-02-16T23:28:14.783Z,102042.95
2018-02-16T23:30:43.564Z,102044.48
2018-02-16T23:33:11.982Z,102039.41
2018-02-16T23:35:40.627Z,102037.48
2018-02-16T23:38:09.043Z,102049.19
2018-02-16T23:40:37.480Z,102042.89
2018-02-16T23:43:06.812Z,102046.03
2018-02-16T23:45:36.069Z,102035.67
2018-02-16T23:48:04.449Z,102030.68
2018-02-16T23:50:32.869Z,102028.16
2018-02-16T23:53:03.219Z,102027.36
2018-02-16T23:55:34.452Z,102022.73
2018-02-16T23:58:13.836Z,102028.11
